»·PEaware :: N2710U KPDX-74S

N2710U :: KPDX-74S

FLIGHT INFORMATION

Flight Status: Arrived
Operator: Privately registered:
United States
More flights under this callsign
Pilot: Nathan P. (3026)
Aircraft: CESSNA T210 TURBO CENTURION
(T210)
More flights by this aircraft type
Origin: KPDX Portland Intl
United States
Destination: 74S Anacortes
United States
More flights between these airports :: More routes between these airports
Route: PTLD1 BTG V287 OLM V165 CVV
File this flight plan on PilotEdge
Remarks:
Altitude:
(Current/Filed)
6,000ft
Speed:
(Current/Filed)
140kts
Departed: 12-Sep-19 04:01 PM
Arrived: 12-Sep-19 05:39 PM
Distance/Time
Traveled:
175nm/1:38
Distance/Time
To Go:
Arrived

Flight Plot

Page will automatically refresh every two minutes.


Map Options




Map Legend


Flown Route
Filed Route
Departure Airport
Arrival Airport
Navaid (VOR, NDB)
Fix

Horizontal Profiles

Position Reports

Time Latitude Longitude Heading Altitude Ground
Speed
12-Sep-19 15:37 45.587427 -122.583531 208 26ft 0kts
12-Sep-19 15:38 45.587427 -122.583531 208 26ft 0kts
12-Sep-19 15:39 45.587427 -122.583531 208 26ft 0kts
12-Sep-19 15:40 45.587427 -122.583531 208 26ft 0kts
12-Sep-19 15:41 45.587427 -122.583531 208 26ft 0kts
12-Sep-19 15:42 45.587417 -122.583538 208 26ft 0kts
12-Sep-19 15:43 45.587417 -122.583538 208 26ft 0kts
12-Sep-19 15:43 45.587417 -122.583538 208 26ft 0kts
12-Sep-19 15:45 45.587417 -122.583538 208 26ft 0kts
12-Sep-19 15:46 45.587417 -122.583538 208 26ft 0kts
12-Sep-19 15:46 45.587417 -122.583538 208 26ft 0kts
12-Sep-19 15:47 45.587417 -122.583538 208 26ft 0kts
12-Sep-19 15:49 45.587417 -122.583538 208 26ft 0kts
12-Sep-19 15:49 45.587417 -122.583538 208 26ft 0kts
12-Sep-19 15:50 45.587417 -122.583538 208 26ft 0kts
12-Sep-19 15:51 45.587371 -122.583440 23 26ft 0kts
12-Sep-19 15:52 45.587371 -122.583440 23 26ft 0kts
12-Sep-19 15:53 45.587371 -122.583440 23 26ft 0kts
12-Sep-19 15:54 45.587590 -122.583234 42 26ft 8kts
12-Sep-19 15:55 45.589641 -122.585627 298 26ft 13kts
12-Sep-19 15:56 45.591996 -122.591651 298 26ft 20kts
12-Sep-19 15:57 45.594226 -122.597504 332 26ft 8kts
12-Sep-19 15:58 45.594440 -122.597477 30 26ft 0kts
12-Sep-19 15:59 45.594440 -122.597477 30 26ft 0kts
12-Sep-19 16:00 45.592192 -122.588851 119 38ft 92kts
12-Sep-19 16:01 45.582381 -122.567857 121 865ft 92kts
12-Sep-19 16:02 45.573916 -122.543765 113 1720ft 95kts
12-Sep-19 16:03 45.584406 -122.533891 348 2503ft 90kts
12-Sep-19 16:04 45.603077 -122.537378 353 3425ft 88kts
12-Sep-19 16:05 45.623197 -122.540672 341 4402ft 89kts
12-Sep-19 16:06 45.641821 -122.545390 340 5295ft 91kts
12-Sep-19 16:07 45.661558 -122.552501 339 6000ft 110kts
12-Sep-19 16:08 45.688699 -122.565898 334 6004ft 139kts
12-Sep-19 16:09 45.721223 -122.581022 339 6002ft 146kts
12-Sep-19 16:10 45.755956 -122.593818 346 6002ft 148kts
12-Sep-19 16:11 45.793026 -122.603024 345 6000ft 148kts
12-Sep-19 16:12 45.830801 -122.612420 345 5999ft 148kts
12-Sep-19 16:13 45.868646 -122.621845 345 5998ft 148kts
12-Sep-19 16:14 45.914893 -122.633372 345 5999ft 148kts
12-Sep-19 16:15 45.955724 -122.643553 346 5999ft 146kts
12-Sep-19 16:16 45.997982 -122.654098 351 6006ft 164kts
12-Sep-19 16:17 46.043431 -122.665501 348 6017ft 170kts
12-Sep-19 16:18 46.089734 -122.677106 346 6019ft 170kts
12-Sep-19 16:19 46.120523 -122.684971 346 6015ft 170kts
12-Sep-19 16:20 46.160603 -122.695128 346 6015ft 169kts
12-Sep-19 16:21 46.202286 -122.705641 346 6017ft 169kts
12-Sep-19 16:22 46.246283 -122.716736 346 6016ft 169kts
12-Sep-19 16:23 46.287751 -122.727207 346 6016ft 169kts
12-Sep-19 16:24 46.329643 -122.737793 346 6035ft 168kts
12-Sep-19 16:25 46.371618 -122.748437 346 6044ft 169kts
12-Sep-19 16:26 46.414311 -122.759275 346 6042ft 169kts
12-Sep-19 16:27 46.454102 -122.769380 345 6033ft 169kts
12-Sep-19 16:28 46.497803 -122.780499 345 6023ft 169kts
12-Sep-19 16:29 46.537020 -122.790468 345 6014ft 169kts
12-Sep-19 16:30 46.581480 -122.801892 344 6008ft 168kts
12-Sep-19 16:31 46.613341 -122.810007 345 6008ft 169kts
12-Sep-19 16:32 46.644957 -122.818185 345 6007ft 169kts
12-Sep-19 16:33 46.680958 -122.827283 344 6002ft 166kts
12-Sep-19 16:34 46.721476 -122.837702 344 6001ft 165kts
12-Sep-19 16:35 46.762749 -122.848323 344 6000ft 164kts
12-Sep-19 16:36 46.803041 -122.858688 344 5997ft 164kts
12-Sep-19 16:37 46.836964 -122.867455 344 5999ft 166kts
12-Sep-19 16:38 46.870827 -122.876214 343 6000ft 165kts
12-Sep-19 16:39 46.904032 -122.884837 344 6001ft 165kts
12-Sep-19 16:40 46.938859 -122.893760 343 6000ft 166kts
12-Sep-19 16:41 46.974538 -122.901767 356 5998ft 170kts
12-Sep-19 16:42 47.007603 -122.897414 0 6000ft 171kts
12-Sep-19 16:43 47.041800 -122.892710 0 5997ft 172kts
12-Sep-19 16:44 47.077739 -122.887948 0 6003ft 172kts
12-Sep-19 16:45 47.112247 -122.883201 359 5995ft 172kts
12-Sep-19 16:46 47.145709 -122.878657 0 5997ft 172kts
12-Sep-19 16:47 47.178135 -122.874180 0 5997ft 172kts
12-Sep-19 16:48 47.210112 -122.869724 0 5999ft 172kts
12-Sep-19 16:49 47.241636 -122.865414 0 5997ft 172kts
12-Sep-19 16:50 47.272541 -122.861152 1 5997ft 172kts
12-Sep-19 16:51 47.300771 -122.857300 1 5997ft 172kts
12-Sep-19 16:52 47.326569 -122.853746 1 5997ft 172kts
12-Sep-19 16:53 47.351530 -122.850300 1 5996ft 172kts
12-Sep-19 16:54 47.376534 -122.846844 1 5996ft 172kts
12-Sep-19 16:55 47.401337 -122.843425 1 5997ft 171kts
12-Sep-19 16:56 47.427067 -122.839861 1 5997ft 172kts
12-Sep-19 16:57 47.454890 -122.835998 1 5997ft 172kts
12-Sep-19 16:58 47.485309 -122.831782 2 5998ft 172kts
12-Sep-19 16:59 47.512689 -122.827986 2 5998ft 172kts
12-Sep-19 17:00 47.539370 -122.824280 2 5998ft 172kts
12-Sep-19 17:01 47.567441 -122.820361 2 5999ft 172kts
12-Sep-19 17:02 47.593093 -122.816773 2 5999ft 172kts
12-Sep-19 17:03 47.618862 -122.813161 2 5999ft 172kts
12-Sep-19 17:04 47.645233 -122.809481 2 5999ft 172kts
12-Sep-19 17:05 47.671231 -122.805866 2 5999ft 172kts
12-Sep-19 17:06 47.696880 -122.802288 2 5999ft 172kts
12-Sep-19 17:07 47.722613 -122.798692 2 5999ft 172kts
12-Sep-19 17:08 47.748547 -122.795069 2 5999ft 172kts
12-Sep-19 17:09 47.774050 -122.791492 2 6000ft 172kts
12-Sep-19 17:10 47.799244 -122.787965 2 6000ft 172kts
12-Sep-19 17:11 47.824432 -122.784435 2 6000ft 172kts
12-Sep-19 17:12 47.851051 -122.780683 2 6001ft 172kts
12-Sep-19 17:13 47.876939 -122.777042 1 6023ft 169kts
12-Sep-19 17:14 47.908674 -122.772557 1 6029ft 166kts
12-Sep-19 17:15 47.937710 -122.768470 2 6033ft 163kts
12-Sep-19 17:16 47.964022 -122.764766 3 6037ft 159kts
12-Sep-19 17:17 47.993430 -122.760618 3 6042ft 156kts
12-Sep-19 17:18 48.023268 -122.756244 3 6044ft 155kts
12-Sep-19 17:19 48.053177 -122.751979 3 6044ft 155kts
12-Sep-19 17:20 48.082538 -122.747808 3 6044ft 155kts
12-Sep-19 17:21 48.109995 -122.743903 3 6044ft 155kts
12-Sep-19 17:22 48.140138 -122.739615 3 6044ft 155kts
12-Sep-19 17:23 48.169775 -122.735390 3 6044ft 155kts
12-Sep-19 17:24 48.200574 -122.731013 3 5784ft 169kts
12-Sep-19 17:25 48.233541 -122.726287 3 5243ft 175kts
12-Sep-19 17:26 48.266552 -122.719946 7 4700ft 176kts
12-Sep-19 17:27 48.299032 -122.711560 7 4161ft 175kts
12-Sep-19 17:28 48.330926 -122.703674 7 3629ft 174kts
12-Sep-19 17:29 48.363469 -122.695606 7 3072ft 151kts
12-Sep-19 17:30 48.387624 -122.692056 335 3038ft 108kts
12-Sep-19 17:31 48.404057 -122.703555 331 3049ft 89kts
12-Sep-19 17:32 48.423454 -122.703536 16 2744ft 102kts
12-Sep-19 17:33 48.439964 -122.693313 18 2069ft 85kts
12-Sep-19 17:34 48.454580 -122.684942 10 1483ft 87kts
12-Sep-19 17:35 48.469116 -122.678612 18 871ft 81kts
12-Sep-19 17:36 48.481903 -122.671586 17 540ft 70kts
12-Sep-19 17:38 48.492982 -122.665557 18 291ft 65kts
12-Sep-19 17:39 48.498385 -122.661736 107 249ft 10kts
12-Sep-19 17:40 48.498316 -122.660913 107 249ft 0kts
12-Sep-19 17:41 48.498316 -122.660913 107 249ft 0kts

Navigation Log

Ident Type
Flight plan parsing failed, navigation log unavailable